createdAt,value
2017-12-25T00:00:06.750Z,1.17
2017-12-25T00:02:35.969Z,1.30
2017-12-25T00:05:12.538Z,0.90
2017-12-25T00:07:42.131Z,1.40
2017-12-25T00:10:11.344Z,1.20
2017-12-25T00:12:40.585Z,1.27
2017-12-25T00:15:10.128Z,1.20
2017-12-25T00:17:39.397Z,1.17
2017-12-25T00:20:08.938Z,1.30
2017-12-25T00:22:38.499Z,1.20
2017-12-25T00:25:07.747Z,1.23
2017-12-25T00:27:37.114Z,1.27
2017-12-25T00:30:07.021Z,1.07
2017-12-25T00:32:36.273Z,1.33
2017-12-25T00:35:05.963Z,0.97
2017-12-25T00:37:35.535Z,1.13
2017-12-25T00:40:06.521Z,1.23
2017-12-25T00:42:35.753Z,1.43
2017-12-25T00:45:06.631Z,1.70
2017-12-25T00:47:36.266Z,1.30
2017-12-25T00:50:07.861Z,1.57
2017-12-25T00:52:37.784Z,1.20
2017-12-25T00:55:07.530Z,0.93
2017-12-25T00:57:36.749Z,0.80
2017-12-25T01:00:05.853Z,1.20
2017-12-25T01:02:35.071Z,4.87
2017-12-25T01:05:05.277Z,0.80
2017-12-25T01:07:34.868Z,0.80
2017-12-25T01:10:06.092Z,0.80
2017-12-25T01:12:35.427Z,0.67
2017-12-25T01:15:06.090Z,1.10
2017-12-25T01:17:35.358Z,0.80
2017-12-25T01:20:06.208Z,0.87
2017-12-25T01:22:35.875Z,0.90
2017-12-25T01:25:06.045Z,1.00
2017-12-25T01:27:35.566Z,0.83
2017-12-25T01:30:06.437Z,1.00
2017-12-25T01:32:35.651Z,1.20
2017-12-25T01:35:06.402Z,0.90
2017-12-25T01:37:35.942Z,1.40
2017-12-25T01:40:06.235Z,1.20
2017-12-25T01:42:35.440Z,0.90
2017-12-25T01:45:05.152Z,1.10
2017-12-25T01:47:34.367Z,1.00
2017-12-25T01:50:05.666Z,0.80
2017-12-25T01:52:35.393Z,1.00
2017-12-25T01:55:06.537Z,1.07
2017-12-25T01:57:36.746Z,1.13
2017-12-25T02:00:06.924Z,1.13
2017-12-25T02:02:36.594Z,1.03
2017-12-25T02:05:06.277Z,0.90
2017-12-25T02:08:12.123Z,1.10
2017-12-25T02:10:41.337Z,1.00
2017-12-25T02:13:10.861Z,1.30
2017-12-25T02:15:40.077Z,1.10
2017-12-25T02:18:09.305Z,1.20
2017-12-25T02:20:38.858Z,1.00
2017-12-25T02:23:08.093Z,1.20
2017-12-25T02:25:37.327Z,0.90
2017-12-25T02:28:06.896Z,25.13
2017-12-25T02:30:36.165Z,1.20
2017-12-25T02:33:05.450Z,0.70
2017-12-25T02:35:35.995Z,1.07
2017-12-25T02:38:06.203Z,0.77
2017-12-25T02:40:35.435Z,1.00
2017-12-25T02:43:05.235Z,1.10
2017-12-25T02:45:34.474Z,0.93
2017-12-25T02:48:04.331Z,0.80
2017-12-25T02:50:33.838Z,1.00
2017-12-25T02:53:03.650Z,1.40
2017-12-25T02:55:32.860Z,0.60
2017-12-25T02:58:03.974Z,1.10
2017-12-25T03:00:33.257Z,0.87
2017-12-25T03:03:03.033Z,0.93
2017-12-25T03:05:32.601Z,0.90
2017-12-25T03:08:01.832Z,1.10
2017-12-25T03:10:31.029Z,1.00
2017-12-25T03:13:01.195Z,1.20
2017-12-25T03:15:30.721Z,0.90
2017-12-25T03:18:00.514Z,0.70
2017-12-25T03:20:30.018Z,1.00
2017-12-25T03:22:59.326Z,0.90
2017-12-25T03:25:28.532Z,0.90
2017-12-25T03:27:58.102Z,0.80
2017-12-25T03:30:27.340Z,1.07
2017-12-25T03:32:56.775Z,0.80
2017-12-25T03:35:25.991Z,1.17
2017-12-25T03:37:55.225Z,0.80
2017-12-25T03:40:24.748Z,0.90
2017-12-25T03:42:54.000Z,0.90
2017-12-25T03:45:23.462Z,0.83
2017-12-25T03:47:53.885Z,0.90
2017-12-25T03:50:23.112Z,0.80
2017-12-25T03:52:52.635Z,0.70
2017-12-25T03:55:21.866Z,0.90
2017-12-25T03:57:51.123Z,0.90
2017-12-25T04:00:21.351Z,0.90
2017-12-25T04:02:51.161Z,0.70
2017-12-25T04:05:20.389Z,0.80
2017-12-25T04:07:49.903Z,0.93
2017-12-25T04:10:19.235Z,0.63
2017-12-25T04:12:48.480Z,0.90
2017-12-25T04:15:17.771Z,0.90
2017-12-25T04:17:46.984Z,0.90
2017-12-25T04:20:16.494Z,0.60
2017-12-25T04:22:45.762Z,0.70
2017-12-25T04:25:15.155Z,0.60
2017-12-25T04:27:44.686Z,11.17
2017-12-25T04:30:14.248Z,1.80
2017-12-25T04:32:43.497Z,0.70
2017-12-25T04:35:12.821Z,0.50
2017-12-25T04:37:42.049Z,0.70
2017-12-25T04:40:11.538Z,0.60
2017-12-25T04:42:40.776Z,0.60
2017-12-25T04:45:10.052Z,0.70
2017-12-25T04:47:39.559Z,0.90
2017-12-25T04:50:08.826Z,0.60
2017-12-25T04:52:38.046Z,0.73
2017-12-25T04:55:07.239Z,0.57
2017-12-25T04:57:36.465Z,0.50
2017-12-25T05:00:07.049Z,0.80
2017-12-25T05:02:36.759Z,0.60
2017-12-25T05:05:06.354Z,0.57
2017-12-25T05:07:36.160Z,0.60
2017-12-25T05:10:06.053Z,0.63
2017-12-25T05:12:35.287Z,0.60
2017-12-25T05:15:04.935Z,0.60
2017-12-25T05:17:34.150Z,0.90
2017-12-25T05:20:05.869Z,0.70
2017-12-25T05:22:35.117Z,0.63
2017-12-25T05:25:04.509Z,0.87
2017-12-25T05:27:34.475Z,0.77
2017-12-25T05:30:04.614Z,0.73
2017-12-25T05:32:33.842Z,0.80
2017-12-25T05:35:03.631Z,0.77
2017-12-25T05:37:32.856Z,0.60
2017-12-25T05:40:03.060Z,0.60
2017-12-25T05:42:32.614Z,0.57
2017-12-25T05:45:02.323Z,0.77
2017-12-25T05:47:31.795Z,0.80
2017-12-25T05:50:01.098Z,0.70
2017-12-25T05:52:30.378Z,3.87
2017-12-25T05:55:00.096Z,0.83
2017-12-25T05:57:29.299Z,0.50
2017-12-25T05:59:58.600Z,0.77
2017-12-25T06:02:28.102Z,0.80
2017-12-25T06:04:57.404Z,0.90
2017-12-25T06:07:26.636Z,0.70
2017-12-25T06:09:56.099Z,0.80
2017-12-25T06:12:25.695Z,1.00
2017-12-25T06:14:54.925Z,0.60
2017-12-25T06:17:25.419Z,0.87
2017-12-25T06:19:54.927Z,0.60
2017-12-25T06:22:24.487Z,0.90
2017-12-25T06:24:54.018Z,1.73
2017-12-25T06:27:23.248Z,1.00
2017-12-25T06:29:52.517Z,0.90
2017-12-25T06:32:22.087Z,0.73
2017-12-25T06:34:51.342Z,0.90
2017-12-25T06:37:20.863Z,0.60
2017-12-25T06:39:50.436Z,0.70
2017-12-25T06:42:19.656Z,0.73
2017-12-25T06:44:48.925Z,0.67
2017-12-25T06:47:18.487Z,0.77
2017-12-25T06:49:47.734Z,0.90
2017-12-25T06:52:17.042Z,0.70
2017-12-25T06:54:46.609Z,0.80
2017-12-25T06:57:16.111Z,1.07
2017-12-25T06:59:45.395Z,0.73
2017-12-25T07:02:15.066Z,0.87
2017-12-25T07:04:44.283Z,0.80
2017-12-25T07:07:13.546Z,1.07
2017-12-25T07:09:43.066Z,64.07
2017-12-25T07:12:12.319Z,0.83
2017-12-25T07:14:41.614Z,0.70
2017-12-25T07:17:11.229Z,0.90
2017-12-25T07:19:40.490Z,0.87
2017-12-25T07:22:09.985Z,0.80
2017-12-25T07:24:39.549Z,0.90
2017-12-25T07:27:08.785Z,0.53
2017-12-25T07:29:38.741Z,0.80
2017-12-25T07:32:08.247Z,0.77
2017-12-25T07:34:37.774Z,0.80
2017-12-25T07:37:07.204Z,0.87
2017-12-25T07:39:37.167Z,0.60
2017-12-25T07:42:10.464Z,0.70
2017-12-25T07:44:41.993Z,1.00
2017-12-25T07:47:11.723Z,0.80
2017-12-25T07:49:40.979Z,1.37
2017-12-25T07:52:10.449Z,1.50
2017-12-25T07:54:40.428Z,1.03
2017-12-25T07:57:09.906Z,1.10
2017-12-25T07:59:39.147Z,0.80
2017-12-25T08:02:08.656Z,0.80
2017-12-25T08:04:37.879Z,0.60
2017-12-25T08:07:07.101Z,0.73
2017-12-25T08:09:36.925Z,0.93
2017-12-25T08:12:07.234Z,0.53
2017-12-25T08:14:36.437Z,0.60
2017-12-25T08:17:05.733Z,0.60
2017-12-25T08:19:34.962Z,0.50
2017-12-25T08:22:05.417Z,0.73
2017-12-25T08:24:34.674Z,0.80
2017-12-25T08:27:04.449Z,0.70
2017-12-25T08:29:36.005Z,1.00
2017-12-25T08:32:06.863Z,0.83
2017-12-25T08:34:36.838Z,0.93
2017-12-25T08:37:06.081Z,1.00
2017-12-25T08:39:35.302Z,1.00
2017-12-25T08:42:05.981Z,0.93
2017-12-25T08:44:35.180Z,0.67
2017-12-25T08:47:04.757Z,0.80
2017-12-25T08:49:34.311Z,1.00
2017-12-25T08:52:04.642Z,1.20
2017-12-25T08:54:33.841Z,0.80
2017-12-25T08:57:03.600Z,1.27
2017-12-25T08:59:32.955Z,1.00
2017-12-25T09:02:03.084Z,1.33
2017-12-25T09:04:32.286Z,1.40
2017-12-25T09:07:03.082Z,1.50
2017-12-25T09:09:32.774Z,1.30
2017-12-25T09:12:04.096Z,1.30
2017-12-25T09:14:33.572Z,1.70
2017-12-25T09:17:04.197Z,2.07
2017-12-25T09:19:33.718Z,3.70
2017-12-25T09:22:05.066Z,4.03
2017-12-25T09:24:34.345Z,4.13
2017-12-25T09:27:04.437Z,4.83
2017-12-25T09:29:33.981Z,5.33
2017-12-25T09:32:05.466Z,5.80
2017-12-25T09:34:34.968Z,5.97
2017-12-25T09:37:05.295Z,6.00
2017-12-25T09:39:34.517Z,7.07
2017-12-25T09:42:05.054Z,8.10
2017-12-25T09:44:34.248Z,142.27
2017-12-25T09:47:04.318Z,7.60
2017-12-25T09:49:33.826Z,7.73
2017-12-25T09:52:04.372Z,7.27
2017-12-25T09:54:33.891Z,8.07
2017-12-25T09:57:04.072Z,8.00
2017-12-25T09:59:33.400Z,8.37
2017-12-25T10:02:04.430Z,8.63
2017-12-25T10:04:33.698Z,10.40
2017-12-25T10:07:03.487Z,10.60
2017-12-25T10:09:32.703Z,11.90
2017-12-25T10:12:03.150Z,10.43
2017-12-25T10:14:33.256Z,11.17
2017-12-25T10:17:03.980Z,11.70
2017-12-25T10:19:33.317Z,12.43
2017-12-25T10:22:03.926Z,13.53
2017-12-25T10:24:33.498Z,13.60
2017-12-25T10:27:03.992Z,13.07
2017-12-25T10:29:33.506Z,15.67
2017-12-25T10:32:03.983Z,14.63
2017-12-25T10:34:33.236Z,14.07
2017-12-25T10:37:03.123Z,14.13
2017-12-25T10:39:32.397Z,12.73
2017-12-25T10:42:03.113Z,12.77
2017-12-25T10:44:32.431Z,12.27
2017-12-25T10:47:06.539Z,12.33
2017-12-25T10:49:36.060Z,13.00
2017-12-25T10:52:06.405Z,13.20
2017-12-25T10:54:35.964Z,11.67
2017-12-25T10:57:06.180Z,13.50
2017-12-25T10:59:35.445Z,11.63
2017-12-25T11:02:06.613Z,12.77
2017-12-25T11:04:35.921Z,13.17
2017-12-25T11:07:05.498Z,13.07
2017-12-25T11:09:35.079Z,11.90
2017-12-25T11:12:06.161Z,12.00
2017-12-25T11:14:35.418Z,12.10
2017-12-25T11:17:06.311Z,13.80
2017-12-25T11:19:35.596Z,12.10
2017-12-25T11:22:06.191Z,11.70
2017-12-25T11:24:35.463Z,12.20
2017-12-25T11:27:06.834Z,11.87
2017-12-25T11:29:36.732Z,12.50
2017-12-25T11:32:06.156Z,11.30
2017-12-25T11:34:35.512Z,11.80
2017-12-25T11:37:05.508Z,11.03
2017-12-25T11:39:34.762Z,11.63
2017-12-25T11:42:05.790Z,11.23
2017-12-25T11:44:35.167Z,11.40
2017-12-25T11:47:06.242Z,10.53
2017-12-25T11:49:35.992Z,11.23
2017-12-25T11:52:06.367Z,11.40
2017-12-25T11:54:35.636Z,12.13
2017-12-25T11:57:05.742Z,11.50
2017-12-25T11:59:35.028Z,12.20
2017-12-25T12:02:06.143Z,13.37
2017-12-25T12:04:35.714Z,12.80
2017-12-25T12:07:06.573Z,12.67
2017-12-25T12:09:37.155Z,13.00
2017-12-25T12:12:07.186Z,14.13
2017-12-25T12:14:36.496Z,12.60
2017-12-25T12:17:06.202Z,12.50
2017-12-25T12:19:35.505Z,13.87
2017-12-25T12:22:06.471Z,13.30
2017-12-25T12:24:35.737Z,13.80
2017-12-25T12:27:05.684Z,14.77
2017-12-25T12:29:35.320Z,14.13
2017-12-25T12:32:06.125Z,14.13
2017-12-25T12:34:35.485Z,12.93
2017-12-25T12:37:06.128Z,12.10
2017-12-25T12:39:36.598Z,11.83
2017-12-25T12:42:06.320Z,11.00
2017-12-25T12:44:35.610Z,12.33
2017-12-25T12:47:05.590Z,11.33
2017-12-25T12:49:35.134Z,11.70
2017-12-25T12:52:05.489Z,12.10
2017-12-25T12:54:35.643Z,10.60
2017-12-25T12:57:05.898Z,11.10
2017-12-25T12:59:35.285Z,11.70
2017-12-25T13:02:06.269Z,11.20
2017-12-25T13:04:35.848Z,11.90
2017-12-25T13:07:05.692Z,11.10
2017-12-25T13:09:35.137Z,11.00
2017-12-25T13:12:05.826Z,11.73
2017-12-25T13:14:35.066Z,11.47
2017-12-25T13:17:06.346Z,10.90
2017-12-25T13:19:36.280Z,11.70
2017-12-25T13:22:07.115Z,10.53
2017-12-25T13:24:36.364Z,10.83
2017-12-25T13:27:06.232Z,11.60
2017-12-25T13:29:35.522Z,10.90
2017-12-25T13:32:07.716Z,10.50
2017-12-25T13:34:39.433Z,11.70
2017-12-25T13:37:24.143Z,11.47
2017-12-25T13:39:53.961Z,10.27
2017-12-25T13:45:06.091Z,11.33
2017-12-25T13:47:35.519Z,10.50
2017-12-25T13:50:05.780Z,13.43
2017-12-25T13:52:37.787Z,11.80
2017-12-25T13:55:07.050Z,10.90
2017-12-25T13:57:36.866Z,11.33
2017-12-25T14:00:09.108Z,11.07
2017-12-25T14:02:38.586Z,11.43
2017-12-25T14:05:08.146Z,11.30
2017-12-25T14:07:37.949Z,11.67
2017-12-25T14:10:07.299Z,10.93
2017-12-25T14:12:36.872Z,11.90
2017-12-25T14:15:06.270Z,11.40
2017-12-25T14:17:35.609Z,11.77
2017-12-25T14:20:07.001Z,10.50
2017-12-25T14:22:36.268Z,11.40
2017-12-25T14:25:06.900Z,11.30
2017-12-25T14:27:37.262Z,11.30
2017-12-25T14:30:08.301Z,11.17
2017-12-25T14:32:37.905Z,11.63
2017-12-25T14:35:07.551Z,11.70
2017-12-25T14:37:36.822Z,11.30
2017-12-25T14:40:06.647Z,11.83
2017-12-25T14:42:36.498Z,11.63
2017-12-25T14:45:06.000Z,11.27
2017-12-25T14:47:36.223Z,11.90
2017-12-25T14:50:06.400Z,11.07
2017-12-25T14:52:35.751Z,12.07
2017-12-25T14:55:06.680Z,12.07
2017-12-25T14:57:36.000Z,12.23
2017-12-25T15:00:06.647Z,12.80
2017-12-25T15:02:35.967Z,11.83
2017-12-25T15:05:05.872Z,14.33
2017-12-25T15:07:35.142Z,13.73
2017-12-25T15:10:06.811Z,13.73
2017-12-25T15:12:36.419Z,14.97
2017-12-25T15:15:06.040Z,15.20
2017-12-25T15:17:35.321Z,15.60
2017-12-25T15:20:07.179Z,15.50
2017-12-25T15:22:37.535Z,15.70
2017-12-25T15:25:07.155Z,14.50
2017-12-25T15:27:36.399Z,14.70
2017-12-25T15:30:06.111Z,16.50
2017-12-25T15:32:36.682Z,16.97
2017-12-25T15:35:07.830Z,15.83
2017-12-25T15:37:37.315Z,16.60
2017-12-25T15:40:06.882Z,15.40
2017-12-25T15:42:36.423Z,16.83
2017-12-25T15:45:06.579Z,16.83
2017-12-25T15:47:36.170Z,16.43
2017-12-25T15:50:06.961Z,16.00
2017-12-25T15:52:36.506Z,15.90
2017-12-25T15:55:06.506Z,16.90
2017-12-25T15:57:36.061Z,15.37
2017-12-25T16:00:06.389Z,15.33
2017-12-25T16:02:36.019Z,17.23
2017-12-25T16:05:06.652Z,19.07
2017-12-25T16:07:35.886Z,16.20
2017-12-25T16:10:06.802Z,16.03
2017-12-25T16:12:36.094Z,17.63
2017-12-25T16:15:06.978Z,17.97
2017-12-25T16:17:36.624Z,16.53
2017-12-25T16:20:06.831Z,16.60
2017-12-25T16:22:36.260Z,17.70
2017-12-25T16:25:06.764Z,19.17
2017-12-25T16:27:36.304Z,17.90
2017-12-25T16:30:06.660Z,19.27
2017-12-25T16:32:36.488Z,19.40
2017-12-25T16:35:06.580Z,17.83
2017-12-25T16:37:36.664Z,19.60
2017-12-25T16:40:06.871Z,18.13
2017-12-25T16:42:36.414Z,18.63
2017-12-25T16:45:07.216Z,19.83
2017-12-25T16:47:37.439Z,19.37
2017-12-25T16:50:06.869Z,19.17
2017-12-25T16:52:37.518Z,19.43
2017-12-25T16:55:07.948Z,18.33
2017-12-25T16:57:38.666Z,18.03
2017-12-25T17:00:10.245Z,20.13
2017-12-25T17:02:39.599Z,17.90
2017-12-25T17:05:09.043Z,18.07
2017-12-25T17:07:38.606Z,19.03
2017-12-25T17:10:08.127Z,18.50
2017-12-25T17:12:37.434Z,18.20
2017-12-25T17:15:07.791Z,18.70
2017-12-25T17:17:37.502Z,17.33
2017-12-25T17:20:07.146Z,18.30
2017-12-25T17:22:36.815Z,18.20
2017-12-25T17:25:06.122Z,47.87
2017-12-25T17:27:35.520Z,20.27
2017-12-25T17:30:11.491Z,18.00
2017-12-25T17:32:40.764Z,19.00
2017-12-25T17:35:10.142Z,18.33
2017-12-25T17:37:39.772Z,17.60
2017-12-25T17:40:09.146Z,18.60
2017-12-25T17:42:38.545Z,18.47
2017-12-25T17:45:08.464Z,17.37
2017-12-25T17:47:37.706Z,20.00
2017-12-25T17:50:07.057Z,18.67
2017-12-25T17:52:36.644Z,19.77
2017-12-25T17:55:05.980Z,19.70
2017-12-25T17:57:35.447Z,19.30
2017-12-25T18:00:06.753Z,19.07
2017-12-25T18:02:36.012Z,20.00
2017-12-25T18:05:07.738Z,20.30
2017-12-25T18:07:37.492Z,18.77
2017-12-25T18:10:08.737Z,20.40
2017-12-25T18:12:41.012Z,21.30
2017-12-25T18:15:11.318Z,21.10
2017-12-25T18:17:42.590Z,20.03
2017-12-25T18:20:12.336Z,20.20
2017-12-25T18:22:41.940Z,21.23
2017-12-25T18:25:11.278Z,20.83
2017-12-25T18:27:41.922Z,21.27
2017-12-25T18:30:11.441Z,21.03
2017-12-25T18:32:41.701Z,19.57
2017-12-25T18:35:11.299Z,20.63
2017-12-25T18:37:41.332Z,20.97
2017-12-25T18:40:10.599Z,20.70
2017-12-25T18:42:39.881Z,20.80
2017-12-25T18:45:09.219Z,18.80
2017-12-25T18:47:38.598Z,21.83
2017-12-25T18:50:08.232Z,22.00
2017-12-25T18:52:37.962Z,20.50
2017-12-25T18:55:08.873Z,21.73
2017-12-25T18:57:39.981Z,22.00
2017-12-25T19:00:10.332Z,22.73
2017-12-25T19:02:40.032Z,22.00
2017-12-25T19:05:09.485Z,20.87
2017-12-25T19:07:39.228Z,23.80
2017-12-25T19:10:08.473Z,21.17
2017-12-25T19:12:38.660Z,24.40
2017-12-25T19:15:08.395Z,23.87
2017-12-25T19:17:37.867Z,35.70
2017-12-25T19:20:08.041Z,26.13
2017-12-25T19:22:37.695Z,24.53
2017-12-25T19:27:59.865Z,25.33
2017-12-25T19:30:29.966Z,25.47
2017-12-25T19:33:00.218Z,26.20
2017-12-25T19:35:30.263Z,25.27
2017-12-25T19:38:00.000Z,23.87
2017-12-25T19:40:30.545Z,24.77
2017-12-25T19:43:00.433Z,26.10
2017-12-25T19:45:29.835Z,22.97
2017-12-25T19:47:59.693Z,22.80
2017-12-25T19:50:30.225Z,26.00
2017-12-25T19:52:59.774Z,28.30
2017-12-25T19:55:29.035Z,23.60
2017-12-25T19:57:58.650Z,24.03
2017-12-25T20:00:27.918Z,25.27
2017-12-25T20:02:57.262Z,25.07
2017-12-25T20:05:26.804Z,24.20
2017-12-25T20:07:56.269Z,25.90
2017-12-25T20:10:25.534Z,29.10
2017-12-25T20:12:55.078Z,27.37
2017-12-25T20:15:25.389Z,53.90
2017-12-25T20:17:55.015Z,26.90
2017-12-25T20:20:24.648Z,24.93
2017-12-25T20:22:54.723Z,27.20
2017-12-25T20:25:23.985Z,26.33
2017-12-25T20:27:53.618Z,27.40
2017-12-25T20:30:23.043Z,26.67
2017-12-25T20:32:52.363Z,27.97
2017-12-25T20:35:23.724Z,26.87
2017-12-25T20:37:55.849Z,27.50
2017-12-25T20:40:27.577Z,25.57
2017-12-25T20:42:57.157Z,26.47
2017-12-25T20:45:28.068Z,26.73
2017-12-25T20:47:57.620Z,28.13
2017-12-25T20:50:27.418Z,28.30
2017-12-25T20:52:57.242Z,29.00
2017-12-25T20:55:28.994Z,29.10
2017-12-25T20:58:00.480Z,28.80
2017-12-25T21:00:30.234Z,29.07
2017-12-25T21:03:03.179Z,29.83
2017-12-25T21:05:33.515Z,27.70
2017-12-25T21:08:06.908Z,27.10
2017-12-25T21:10:36.196Z,27.30
2017-12-25T21:13:06.227Z,29.93
2017-12-25T21:15:38.788Z,28.60
2017-12-25T21:18:09.311Z,26.50
2017-12-25T21:20:38.989Z,27.47
2017-12-25T21:23:08.673Z,29.60
2017-12-25T21:25:38.556Z,27.57
2017-12-25T21:28:08.218Z,29.13
2017-12-25T21:30:38.193Z,30.10
2017-12-25T21:33:08.653Z,29.30
2017-12-25T21:35:38.663Z,28.27
2017-12-25T21:38:10.661Z,31.17
2017-12-25T21:40:40.286Z,29.03
2017-12-25T21:43:09.849Z,31.10
2017-12-25T21:45:40.373Z,30.73
2017-12-25T21:48:10.139Z,26.13
2017-12-25T21:50:41.146Z,28.77
2017-12-25T21:53:10.391Z,30.27
2017-12-25T21:55:39.704Z,29.07
2017-12-25T21:58:09.603Z,29.03
2017-12-25T22:00:39.668Z,35.83
2017-12-25T22:03:09.823Z,27.33
2017-12-25T22:05:39.250Z,30.40
2017-12-25T22:08:10.455Z,30.87
2017-12-25T22:10:41.006Z,30.30
2017-12-25T22:13:11.173Z,29.20
2017-12-25T22:15:40.393Z,29.07
2017-12-25T22:18:09.944Z,32.10
2017-12-25T22:20:39.748Z,31.40
2017-12-25T22:23:09.367Z,30.80
2017-12-25T22:25:39.750Z,30.47
2017-12-25T22:28:09.385Z,31.00
2017-12-25T22:30:38.718Z,28.10
2017-12-25T22:33:08.280Z,29.27
2017-12-25T22:35:37.552Z,29.57
2017-12-25T22:38:07.386Z,31.27
2017-12-25T22:40:36.917Z,29.47
2017-12-25T22:43:20.603Z,29.70
2017-12-25T22:45:49.837Z,29.57
2017-12-25T22:48:19.330Z,34.27
2017-12-25T22:50:48.547Z,29.93
2017-12-25T22:53:17.777Z,31.20
2017-12-25T22:55:47.302Z,29.57
2017-12-25T22:58:16.663Z,32.50
2017-12-25T23:00:45.948Z,30.87
2017-12-25T23:03:16.047Z,31.40
2017-12-25T23:05:45.425Z,29.07
2017-12-25T23:10:38.843Z,29.73
2017-12-25T23:13:08.234Z,29.63
2017-12-25T23:15:37.459Z,31.20
2017-12-25T23:18:07.876Z,28.53
2017-12-25T23:20:37.086Z,29.40
2017-12-25T23:23:06.344Z,29.90
2017-12-25T23:25:35.863Z,28.47
2017-12-25T23:28:13.015Z,28.70
2017-12-25T23:30:42.240Z,29.80
2017-12-25T23:33:11.843Z,31.03
2017-12-25T23:35:41.033Z,29.23
2017-12-25T23:38:10.269Z,29.50
2017-12-25T23:40:39.848Z,28.90
2017-12-25T23:43:09.206Z,29.70
2017-12-25T23:45:38.472Z,27.80
2017-12-25T23:48:07.957Z,27.63
2017-12-25T23:50:37.189Z,29.23
2017-12-25T23:53:06.493Z,26.73
2017-12-25T23:55:36.092Z,28.93
2017-12-25T23:58:07.070Z,28.40
